Estación Meteorológica Peña el Pijo (Robertgarden) [ 12/06/23 10:23:13 CET ]

Fecha Hora Presion(HPa) Temp (°C) Humedad % Rocio (°C) Viento ( m/s) Direccion Lluvia 1Hora(mm) Lluvia 24H(mm) LLuvia Total(mm)
2013-Jan-24 01:01:14 1004.800 2.7 84 0.2         178.19
2013-Jan-24 02:04:16 1003.700 3.3 85 1.0         178.19
2013-Jan-24 03:01:14 1003.000 3.5 87 1.5         178.19
2013-Jan-24 04:01:16 1001.800 3.8 87 1.8         178.19
2013-Jan-24 05:01:11 1001.700 4.3 86 2.1 5.7 SSW     178.19
2013-Jan-24 06:01:18 1000.800 4.2 85 1.9         178.19
2013-Jan-24 07:01:16 1001.200 4.2 84 1.7         178.19
2013-Jan-24 08:01:16 1001.100 4.2 83 1.6 1.7 W     178.19
2013-Jan-24 09:01:18 1001.600 4.9 81 1.9 4.5 ESE     178.19
2013-Jan-24 10:01:16 1001.200 6.2 75 2.1         178.19
2013-Jan-24 11:01:16 1002.600 5.5 78 1.9         178.19
2013-Jan-24 12:01:14 1003.200 5.4 83 2.7         178.19
2013-Jan-24 13:01:14 1003.400 5.8 80 2.6 2.7 S     178.19
2013-Jan-24 14:01:13 1002.700 6.2 80 3.0         178.19
2013-Jan-24 15:01:17 1002.800 7.4 76 3.4         178.19
2013-Jan-24 16:01:13 1002.800 8.8 69 3.4         178.19
2013-Jan-24 17:01:18 1002.700 7.3 68 1.8         178.19
2013-Jan-24 18:01:17 1002.800 6.4 70 1.4         178.19
2013-Jan-24 19:01:17 1003.100 5.6 71 0.8         178.19
2013-Jan-24 20:01:13 1003.300 5.2 73 0.7         178.19
2013-Jan-24 21:01:13 1003.600 5.6 71 0.8 0.4 NE     178.19
2013-Jan-24 22:01:17 1003.900 5.9 70 0.9 1.3 E     178.19
2013-Jan-24 23:01:13 1004.200 6.0 68 0.6         178.19

Temperatura Máxima:    Temperatura Mínima:
Presión Máxima:1004.800 Hpa    Presión Mínima:1000.800 Hpa


Volver